Time;durP1;ratioP1;P1;durP2;ratioP2;P2;SDS_P1;SDS_P2;PMS_P1;PMS_P2;Temp;Humidity;BMP_temperature;BMP_pressure;BME280_temperature;BME280_humidity;BME280_pressure;Samples;Min_cycle;Max_cycle;Signal;HPM_P1;HPM_P2
2022/01/25 00:08:53;;;;;;;15.10;13.60;;;4.30;99.90;;;;;;5010841;28;20618;-49
2022/01/25 00:25:09;;;;;;;13.13;11.77;;;4.30;99.90;;;;;;5029974;22;20497;-51
2022/01/25 00:27:47;;;;;;;14.67;13.17;;;4.20;99.90;;;;;;5032208;28;20458;-52
2022/01/25 00:30:43;;;;;;;15.10;13.10;;;4.20;99.90;;;;;;5031820;28;20462;-52
2022/01/25 00:33:10;;;;;;;13.80;12.40;;;4.20;99.90;;;;;;5034043;28;20451;-51
2022/01/25 00:35:36;;;;;;;15.80;12.80;;;4.20;99.90;;;;;;5036295;28;20518;-51
2022/01/25 00:38:03;;;;;;;13.77;12.37;;;4.30;99.90;;;;;;5036314;28;20517;-50
2022/01/25 00:40:30;;;;;;;14.80;12.83;;;4.30;99.90;;;;;;5030953;28;20498;-51
2022/01/25 00:42:56;;;;;;;14.43;12.93;;;4.30;99.90;;;;;;5033803;28;20566;-52
2022/01/25 00:45:28;;;;;;;14.40;12.87;;;4.20;99.90;;;;;;5036066;28;21161;-51
2022/01/25 00:47:54;;;;;;;14.07;12.67;;;4.30;99.90;;;;;;5033960;28;20848;-51
2022/01/25 00:50:22;;;;;;;16.30;13.63;;;4.30;99.90;;;;;;5032658;28;20463;-51
2022/01/25 00:55:34;;;;;;;14.33;12.83;;;4.30;99.90;;;;;;5034950;28;20482;-51
2022/01/25 00:58:02;;;;;;;14.67;13.17;;;4.20;99.90;;;;;;5031201;28;20524;-52
2022/01/25 01:00:29;;;;;;;14.97;13.47;;;4.20;99.90;;;;;;5033798;28;20502;-52
2022/01/25 01:02:56;;;;;;;18.43;13.43;;;4.10;99.90;;;;;;5030075;28;20904;-52
2022/01/25 01:05:23;;;;;;;15.93;14.17;;;4.10;99.90;;;;;;5035520;28;20511;-52
2022/01/25 01:07:49;;;;;;;16.17;13.50;;;4.10;99.90;;;;;;5031992;28;20620;-52
2022/01/25 01:10:20;;;;;;;20.20;15.17;;;4.10;99.90;;;;;;5034455;28;20556;-52
2022/01/25 01:15:38;;;;;;;16.90;14.97;;;4.10;99.90;;;;;;5029812;28;20610;-51
2022/01/25 01:29:16;;;;;;;22.60;17.47;;;4.10;99.90;;;;;;5031082;28;20541;-50
2022/01/25 01:35:23;;;;;;;18.60;16.03;;;4.10;99.90;;;;;;5026488;28;20482;-51
2022/01/25 01:38:12;;;;;;;24.27;18.87;;;4.00;40.80;;;;;;5029521;28;20466;-51
2022/01/25 01:41:00;;;;;;;20.73;17.27;;;4.00;27.00;;;;;;5030154;28;21197;-52
2022/01/25 01:43:31;;;;;;;24.20;18.27;;;4.00;75.40;;;;;;5031270;28;20496;-51
2022/01/25 01:46:06;;;;;;;24.83;19.10;;;4.00;30.20;;;;;;5037043;28;20561;-51
2022/01/25 01:48:38;;;;;;;25.23;18.93;;;4.00;23.90;;;;;;5030436;28;20461;-51
2022/01/25 01:51:14;;;;;;;23.37;19.37;;;4.00;23.30;;;;;;5031021;28;20473;-51
2022/01/25 01:53:41;;;;;;;24.30;19.03;;;4.00;91.70;;;;;;5029988;28;20991;-50
2022/01/25 01:56:07;;;;;;;25.40;19.33;;;4.00;25.90;;;;;;5037966;28;20566;-51
2022/01/25 01:58:36;;;;;;;29.03;21.63;;;3.90;26.90;;;;;;5023950;28;20486;-51
2022/01/25 02:01:06;;;;;;;30.87;20.87;;;3.90;23.80;;;;;;5029108;28;20463;-51
2022/01/25 02:03:34;;;;;;;25.97;20.07;;;3.90;20.20;;;;;;5029068;28;20490;-51
2022/01/25 02:06:01;;;;;;;29.27;20.03;;;3.90;23.40;;;;;;5030481;28;20996;-51
2022/01/25 02:08:27;;;;;;;29.83;21.50;;;3.90;27.30;;;;;;5030493;28;20459;-52
2022/01/25 02:10:54;;;;;;;29.60;21.03;;;3.90;28.60;;;;;;5030640;28;20521;-51
2022/01/25 02:13:20;;;;;;;27.53;21.47;;;3.90;85.90;;;;;;5031389;28;20486;-51
2022/01/25 02:15:49;;;;;;;29.43;20.57;;;3.90;21.60;;;;;;5028252;28;20581;-50
2022/01/25 02:23:56;;;;;;;31.80;22.83;;;3.80;34.80;;;;;;5002403;28;20447;-51
2022/01/25 02:26:22;;;;;;;30.53;23.70;;;3.80;29.70;;;;;;5036928;28;20657;-50
2022/01/25 02:28:49;;;;;;;32.83;22.50;;;3.80;21.30;;;;;;5029760;28;21180;-50
2022/01/25 02:31:17;;;;;;;31.87;22.20;;;3.80;83.40;;;;;;5029417;28;20834;-51
2022/01/25 02:33:45;;;;;;;28.50;22.30;;;3.80;77.90;;;;;;5032196;28;20502;-52
2022/01/25 02:36:16;;;;;;;31.40;21.73;;;3.80;80.70;;;;;;5033737;28;20521;-52
2022/01/25 02:38:43;;;;;;;29.40;22.30;;;3.80;34.70;;;;;;5027693;28;20854;-51
2022/01/25 02:41:10;;;;;;;30.63;21.20;;;3.80;33.00;;;;;;5029682;28;20466;-52
2022/01/25 02:43:36;;;;;;;32.37;22.53;;;3.70;40.40;;;;;;5030273;28;20491;-51
2022/01/25 02:48:52;;;;;;;30.00;22.30;;;3.70;36.10;;;;;;5028575;28;20799;-51
2022/01/25 02:51:21;;;;;;;31.43;22.60;;;3.70;41.10;;;;;;5029893;28;20484;-51
2022/01/25 02:53:48;;;;;;;27.40;21.10;;;3.70;46.10;;;;;;5028392;28;20501;-51
2022/01/25 02:56:15;;;;;;;30.40;22.47;;;3.70;41.50;;;;;;5031069;28;20565;-51
2022/01/25 02:58:42;;;;;;;31.87;22.50;;;3.70;44.40;;;;;;5031437;28;20459;-51
2022/01/25 03:01:09;;;;;;;30.40;22.03;;;3.70;48.10;;;;;;5032465;28;20889;-51
2022/01/25 03:03:35;;;;;;;30.67;20.43;;;3.70;44.30;;;;;;5030401;28;20490;-51
2022/01/25 03:06:02;;;;;;;27.33;19.87;;;3.70;47.10;;;;;;5030745;28;21287;-51
2022/01/25 03:08:30;;;;;;;29.57;19.13;;;3.70;51.00;;;;;;5029945;28;20975;-51
2022/01/25 03:10:57;;;;;;;29.27;20.97;;;3.60;63.10;;;;;;5030232;28;21000;-51
2022/01/25 03:13:30;;;;;;;26.60;20.03;;;3.70;55.30;;;;;;5033522;28;20462;-51
2022/01/25 03:16:03;;;;;;;32.20;21.50;;;3.70;71.20;;;;;;5026377;28;20488;-51
2022/01/25 03:18:44;;;;;;;29.60;20.20;;;3.70;79.60;;;;;;5029707;28;20956;-51
2022/01/25 03:21:22;;;;;;;27.97;19.13;;;3.70;87.20;;;;;;5018435;28;20481;-52
2022/01/25 03:23:51;;;;;;;27.23;19.43;;;3.70;99.90;;;;;;5028987;28;20945;-52
2022/01/25 03:26:18;;;;;;;27.70;20.60;;;3.70;99.90;;;;;;5037445;28;20463;-51
2022/01/25 03:28:45;;;;;;;28.63;20.87;;;3.60;99.90;;;;;;5029213;28;20984;-51
2022/01/25 03:31:12;;;;;;;27.53;20.43;;;3.70;99.90;;;;;;5029229;28;20550;-52
2022/01/25 03:33:39;;;;;;;26.50;20.50;;;3.70;99.90;;;;;;5022314;28;20505;-52
2022/01/25 03:36:07;;;;;;;27.80;21.73;;;3.70;99.90;;;;;;5033653;28;20517;-51
2022/01/25 03:38:35;;;;;;;27.10;20.83;;;3.60;99.90;;;;;;5035011;28;20466;-51
2022/01/25 03:41:04;;;;;;;27.70;21.27;;;3.60;99.90;;;;;;5033206;28;20470;-51
2022/01/25 03:43:31;;;;;;;27.70;20.30;;;3.60;99.90;;;;;;5035994;28;20490;-50
2022/01/25 03:46:02;;;;;;;32.37;21.60;;;3.70;99.90;;;;;;5032072;28;20558;-51
2022/01/25 03:51:13;;;;;;;27.70;19.90;;;3.70;99.90;;;;;;5034164;28;20831;-52
2022/01/25 03:53:39;;;;;;;30.57;21.73;;;3.60;99.90;;;;;;5033212;28;20976;-51
2022/01/25 03:56:07;;;;;;;26.43;19.67;;;3.60;99.90;;;;;;5032306;28;21069;-51
2022/01/25 03:58:34;;;;;;;28.47;21.20;;;3.70;99.90;;;;;;5031953;28;20497;-51
2022/01/25 04:01:00;;;;;;;30.73;21.43;;;3.70;99.90;;;;;;5036172;28;20513;-51
2022/01/25 04:03:32;;;;;;;26.30;21.33;;;3.70;99.90;;;;;;5032550;28;20462;-52
2022/01/25 04:05:59;;;;;;;27.60;21.00;;;3.70;99.90;;;;;;5033368;28;20482;-51
2022/01/25 04:08:25;;;;;;;29.63;21.60;;;3.60;99.90;;;;;;5032805;28;20477;-51
2022/01/25 04:10:52;;;;;;;32.40;21.53;;;3.60;99.90;;;;;;5037511;28;20467;-51
2022/01/25 04:13:20;;;;;;;29.23;21.17;;;3.60;99.90;;;;;;5032901;28;20967;-51
2022/01/25 04:15:48;;;;;;;30.23;20.83;;;3.60;99.90;;;;;;5030801;28;20518;-51
2022/01/25 04:18:31;;;;;;;25.80;20.07;;;3.60;99.90;;;;;;5032675;28;20512;-51
2022/01/25 04:21:05;;;;;;;31.70;22.63;;;3.70;99.90;;;;;;5041192;28;20462;-51
2022/01/25 04:26:16;;;;;;;28.63;20.03;;;3.60;98.60;;;;;;5033079;28;20974;-51
2022/01/25 04:28:44;;;;;;;30.93;22.00;;;3.60;99.90;;;;;;5031103;28;20502;-51
2022/01/25 04:31:11;;;;;;;27.40;21.70;;;3.60;99.90;;;;;;5031064;28;20478;-51
2022/01/25 04:33:43;;;;;;;27.63;21.20;;;3.60;99.90;;;;;;5030747;28;20458;-51
2022/01/25 04:36:39;;;;;;;25.93;20.73;;;3.50;99.90;;;;;;5032212;28;20494;-51
2022/01/25 04:50:05;;;;;;;28.67;21.50;;;3.50;91.20;;;;;;5031601;28;20532;-51
2022/01/25 04:52:39;;;;;;;30.90;20.60;;;3.60;89.20;;;;;;5027169;28;20459;-51
2022/01/25 04:55:14;;;;;;;30.80;22.17;;;3.60;91.70;;;;;;5030218;28;20483;-51
2022/01/25 04:57:46;;;;;;;27.80;21.37;;;3.60;91.40;;;;;;5028373;28;20490;-52
2022/01/25 05:00:18;;;;;;;28.90;21.80;;;3.50;99.90;;;;;;5030672;28;20821;-50
2022/01/25 05:02:51;;;;;;;30.23;21.43;;;3.50;98.00;;;;;;5031380;28;20490;-51
2022/01/25 05:05:23;;;;;;;27.87;21.10;;;3.60;98.50;;;;;;5030445;28;20481;-51
2022/01/25 05:07:57;;;;;;;34.90;22.77;;;3.50;99.90;;;;;;5031603;28;20523;-51
2022/01/25 05:10:24;;;;;;;26.07;20.90;;;3.60;99.20;;;;;;5028346;28;20570;-51
2022/01/25 05:12:54;;;;;;;32.40;22.70;;;3.60;93.50;;;;;;5030643;28;20462;-52
2022/01/25 05:15:27;;;;;;;30.83;22.70;;;3.60;93.20;;;;;;5029927;28;20474;-51
2022/01/25 05:18:10;;;;;;;30.27;23.27;;;3.60;90.20;;;;;;5030677;28;20496;-52
2022/01/25 05:23:21;;;;;;;29.83;22.80;;;3.60;91.40;;;;;;5033363;28;20620;-51
2022/01/25 05:25:47;;;;;;;29.07;21.17;;;3.60;97.00;;;;;;5028568;28;21046;-51
2022/01/25 05:28:14;;;;;;;28.97;22.67;;;3.60;96.80;;;;;;5030657;28;21043;-51
2022/01/25 05:30:42;;;;;;;30.60;22.33;;;3.60;98.30;;;;;;5029518;28;20459;-51
2022/01/25 05:33:08;;;;;;;28.60;21.70;;;3.60;99.90;;;;;;5030149;28;20547;-51
2022/01/25 05:35:35;;;;;;;30.00;21.93;;;3.50;99.90;;;;;;5040592;28;20510;-51
2022/01/25 05:38:01;;;;;;;28.17;22.27;;;3.60;91.20;;;;;;5052448;28;20568;-51
2022/01/25 05:40:41;;;;;;;26.50;21.40;;;3.60;95.30;;;;;;5039161;28;20502;-51
2022/01/25 05:46:12;;;;;;;30.00;24.07;;;3.60;91.20;;;;;;5032024;28;20479;-52
2022/01/25 05:48:39;;;;;;;30.90;21.47;;;3.60;99.50;;;;;;5031162;28;20956;-51
2022/01/25 05:51:06;;;;;;;33.70;24.10;;;3.60;99.90;;;;;;5035870;28;20455;-52
2022/01/25 05:53:33;;;;;;;27.40;21.17;;;3.60;96.60;;;;;;5017857;28;20972;-50
2022/01/25 05:55:59;;;;;;;32.07;23.03;;;3.60;97.40;;;;;;5036340;28;20499;-50
2022/01/25 05:58:26;;;;;;;34.53;22.60;;;3.60;95.60;;;;;;5030966;28;20986;-51
2022/01/25 06:00:53;;;;;;;28.57;22.10;;;3.60;93.50;;;;;;5038214;28;20501;-51
2022/01/25 06:03:21;;;;;;;33.57;24.00;;;3.60;89.90;;;;;;5031620;28;20478;-51
2022/01/25 06:05:48;;;;;;;27.47;21.87;;;3.60;86.20;;;;;;5032035;28;20545;-51
2022/01/25 06:08:14;;;;;;;32.93;21.87;;;3.60;85.80;;;;;;5031150;28;20534;-50
2022/01/25 06:10:41;;;;;;;30.03;22.20;;;3.60;89.70;;;;;;5034762;28;20494;-51
2022/01/25 06:13:08;;;;;;;28.97;21.93;;;3.60;95.20;;;;;;5031468;28;20486;-51
2022/01/25 06:15:34;;;;;;;30.67;23.30;;;3.60;92.20;;;;;;5043595;28;20517;-50
2022/01/25 06:18:01;;;;;;;31.37;23.97;;;3.70;93.60;;;;;;5031002;28;20566;-51
2022/01/25 06:20:29;;;;;;;27.90;21.73;;;3.70;91.20;;;;;;5032385;28;20505;-51
2022/01/25 06:22:56;;;;;;;33.80;21.73;;;3.70;93.40;;;;;;5027966;28;20553;-52
2022/01/25 06:25:22;;;;;;;29.27;21.27;;;3.60;95.80;;;;;;5041064;22;21220;-51
2022/01/25 06:27:49;;;;;;;29.90;23.43;;;3.60;99.90;;;;;;5006562;28;20460;-51
2022/01/25 06:30:19;;;;;;;32.33;23.33;;;3.60;96.10;;;;;;5009820;28;20555;-52
2022/01/25 06:32:46;;;;;;;29.13;23.07;;;3.60;92.40;;;;;;5006900;28;20508;-51
2022/01/25 06:35:14;;;;;;;28.47;22.90;;;3.60;89.70;;;;;;5010594;28;20475;-52
2022/01/25 06:37:42;;;;;;;30.97;21.23;;;3.60;91.60;;;;;;5012517;28;20486;-50
2022/01/25 06:40:09;;;;;;;28.30;21.70;;;3.60;81.70;;;;;;5008503;28;20867;-52
2022/01/25 06:42:36;;;;;;;33.57;23.80;;;3.60;88.90;;;;;;5002985;28;20558;-52
2022/01/25 06:45:08;;;;;;;33.77;22.13;;;3.60;93.30;;;;;;5001445;28;20479;-52
2022/01/25 06:47:35;;;;;;;29.77;22.13;;;3.60;84.80;;;;;;5007119;28;20459;-51
2022/01/25 06:50:02;;;;;;;28.13;20.63;;;3.60;78.70;;;;;;5005998;28;20494;-53
2022/01/25 06:52:28;;;;;;;29.03;21.70;;;3.70;79.30;;;;;;5007568;28;20462;-52
2022/01/25 06:54:56;;;;;;;29.87;22.03;;;3.60;80.90;;;;;;5004724;28;21517;-52
2022/01/25 06:57:23;;;;;;;28.77;23.03;;;3.60;80.80;;;;;;4998012;28;20515;-51
2022/01/25 06:59:49;;;;;;;31.93;22.27;;;3.60;80.10;;;;;;5005663;28;20515;-52
2022/01/25 07:02:16;;;;;;;30.40;21.20;;;3.50;78.90;;;;;;5006581;28;20482;-52
2022/01/25 07:04:43;;;;;;;28.60;21.20;;;3.50;86.40;;;;;;5008909;28;20497;-51
2022/01/25 07:07:09;;;;;;;28.30;21.10;;;3.60;73.50;;;;;;5010140;28;20487;-51
2022/01/25 07:09:36;;;;;;;27.43;20.83;;;3.60;76.50;;;;;;5013068;28;20488;-51
2022/01/25 07:12:05;;;;;;;33.93;21.23;;;3.60;77.40;;;;;;5015377;28;20448;-51
2022/01/25 07:14:31;;;;;;;28.90;21.13;;;3.60;87.80;;;;;;5009458;28;20554;-51
2022/01/25 07:16:59;;;;;;;29.90;21.83;;;3.60;65.80;;;;;;5008470;28;20929;-51
2022/01/25 07:19:26;;;;;;;36.80;22.90;;;3.60;69.10;;;;;;5012478;28;20949;-52
2022/01/25 07:21:52;;;;;;;27.93;21.87;;;3.60;74.00;;;;;;5013731;28;20459;-52
2022/01/25 07:24:19;;;;;;;29.47;22.43;;;3.60;75.20;;;;;;5014302;28;21268;-52
2022/01/25 07:26:47;;;;;;;30.90;23.07;;;3.60;72.10;;;;;;5010203;28;20551;-52
2022/01/25 07:29:15;;;;;;;30.57;24.10;;;3.60;69.90;;;;;;5016187;28;20463;-51
2022/01/25 07:31:41;;;;;;;30.10;23.07;;;3.60;58.70;;;;;;5009953;28;20977;-51
2022/01/25 07:34:08;;;;;;;32.47;22.57;;;3.60;63.60;;;;;;5008146;28;20474;-51
2022/01/25 07:36:37;;;;;;;33.10;23.93;;;3.60;71.20;;;;;;5011056;28;20511;-52
2022/01/25 07:39:04;;;;;;;30.80;22.53;;;3.60;63.20;;;;;;5009388;28;20455;-52
2022/01/25 07:41:31;;;;;;;33.25;23.15;;;3.60;70.00;;;;;;5007458;28;20455;-52
2022/01/25 07:43:59;;;;;;;32.67;24.53;;;3.60;76.20;;;;;;5004892;28;20733;-53
2022/01/25 07:46:28;;;;;;;33.70;24.33;;;3.50;71.90;;;;;;5007501;28;20489;-53
2022/01/25 07:48:54;;;;;;;34.37;23.23;;;3.50;60.80;;;;;;5013316;28;20452;-53
2022/01/25 07:51:21;;;;;;;31.37;22.90;;;3.60;56.30;;;;;;5009017;28;20459;-52
2022/01/25 07:53:48;;;;;;;31.23;22.87;;;3.60;55.10;;;;;;5008470;28;20476;-52
2022/01/25 07:56:14;;;;;;;30.90;23.07;;;3.60;60.20;;;;;;5011835;28;20483;-52
2022/01/25 07:58:41;;;;;;;34.53;24.37;;;3.70;65.90;;;;;;5008493;28;20491;-52
2022/01/25 08:01:08;;;;;;;32.43;23.77;;;3.70;70.40;;;;;;5009763;28;20496;-52
2022/01/25 08:03:36;;;;;;;37.30;26.23;;;3.70;77.30;;;;;;5014073;28;20542;-52
2022/01/25 08:06:03;;;;;;;39.97;27.13;;;3.70;80.90;;;;;;5014554;28;20468;-51
2022/01/25 08:08:30;;;;;;;33.97;24.37;;;3.70;80.70;;;;;;5009849;28;20484;-50
2022/01/25 08:10:56;;;;;;;35.30;25.80;;;3.80;69.60;;;;;;5009223;28;20554;-51
2022/01/25 08:13:23;;;;;;;37.87;26.90;;;3.80;69.60;;;;;;5011436;28;20495;-51
2022/01/25 08:15:50;;;;;;;36.90;26.90;;;3.70;87.40;;;;;;5014295;28;20495;-53
2022/01/25 08:18:17;;;;;;;36.10;26.17;;;3.80;76.80;;;;;;5014906;28;20475;-55
2022/01/25 08:20:44;;;;;;;39.40;26.43;;;3.80;77.80;;;;;;5010267;28;20499;-51
2022/01/25 08:23:12;;;;;;;37.17;26.50;;;3.80;73.60;;;;;;5012007;28;27371;-51
2022/01/25 08:25:38;;;;;;;42.60;27.10;;;3.80;75.30;;;;;;5021777;28;20505;-59
2022/01/25 08:28:05;;;;;;;38.90;25.97;;;3.90;67.10;;;;;;5014358;28;20536;-51
2022/01/25 08:30:32;;;;;;;37.70;26.50;;;3.90;72.10;;;;;;5009313;28;20448;-52
2022/01/25 08:32:59;;;;;;;36.20;27.00;;;3.90;71.20;;;;;;5017422;28;20510;-52
2022/01/25 08:35:26;;;;;;;40.70;24.57;;;3.90;76.80;;;;;;5012551;28;20530;-52
2022/01/25 08:37:54;;;;;;;39.27;27.17;;;3.80;75.70;;;;;;5011813;28;20488;-51
2022/01/25 08:40:21;;;;;;;38.00;25.83;;;3.90;71.30;;;;;;5010981;28;20904;-51
2022/01/25 08:42:47;;;;;;;37.70;27.13;;;3.90;65.20;;;;;;5010218;28;20499;-51
2022/01/25 08:45:14;;;;;;;42.57;28.93;;;3.90;60.90;;;;;;5007615;28;20936;-51
2022/01/25 08:47:41;;;;;;;41.57;25.30;;;4.00;65.00;;;;;;5005982;28;20455;-50
2022/01/25 08:50:09;;;;;;;38.57;27.63;;;3.90;64.70;;;;;;5007661;28;20566;-51
2022/01/25 08:52:36;;;;;;;37.77;25.80;;;3.90;72.60;;;;;;5007251;28;20460;-51
2022/01/25 08:55:04;;;;;;;36.30;26.67;;;4.00;56.80;;;;;;5008778;28;20562;-52
2022/01/25 08:57:31;;;;;;;38.70;26.10;;;4.00;51.80;;;;;;5005173;28;21020;-51
2022/01/25 08:59:58;;;;;;;36.30;26.60;;;4.00;61.50;;;;;;5010983;28;20483;-51
2022/01/25 09:02:24;;;;;;;36.23;26.70;;;4.00;47.40;;;;;;5010435;28;20477;-52
2022/01/25 09:04:51;;;;;;;40.00;29.17;;;4.00;45.10;;;;;;5010449;28;20919;-52
2022/01/25 09:07:18;;;;;;;40.10;27.33;;;4.00;40.00;;;;;;5008018;28;20485;-52
2022/01/25 09:09:44;;;;;;;41.30;26.37;;;4.00;39.10;;;;;;5008027;28;20921;-52
2022/01/25 09:12:12;;;;;;;36.67;25.57;;;4.10;40.10;;;;;;4999814;28;20472;-52
2022/01/25 09:14:39;;;;;;;34.63;25.43;;;4.10;41.40;;;;;;5007773;28;20479;-52
2022/01/25 09:17:09;;;;;;;38.77;26.13;;;4.10;30.20;;;;;;5006501;28;20542;-52
2022/01/25 09:19:36;;;;;;;38.60;27.20;;;4.00;49.40;;;;;;5008117;28;20622;-52
2022/01/25 09:22:03;;;;;;;37.90;25.47;;;3.90;30.20;;;;;;5007908;28;20487;-51
2022/01/25 09:24:30;;;;;;;38.93;27.90;;;3.90;99.90;;;;;;5009056;28;20492;-51
2022/01/25 09:26:56;;;;;;;40.30;26.73;;;3.90;99.90;;;;;;5011784;28;20566;-51
2022/01/25 09:29:24;;;;;;;39.60;25.53;;;3.90;99.90;;;;;;5009295;28;20957;-52
2022/01/25 09:31:51;;;;;;;37.27;25.57;;;3.90;99.90;;;;;;5007906;28;20547;-51
2022/01/25 09:34:19;;;;;;;38.10;26.37;;;3.90;99.90;;;;;;5015663;28;20590;-52
2022/01/25 09:36:46;;;;;;;39.13;27.17;;;4.00;99.90;;;;;;5011743;28;20517;-51
2022/01/25 09:39:12;;;;;;;35.87;25.00;;;3.90;99.90;;;;;;5006200;28;20582;-51
2022/01/25 09:41:39;;;;;;;30.77;23.13;;;3.90;99.90;;;;;;4997189;28;20547;-51
2022/01/25 09:44:05;;;;;;;38.10;25.43;;;3.90;99.90;;;;;;5000814;28;20996;-51
2022/01/25 09:46:34;;;;;;;39.30;27.13;;;4.00;99.90;;;;;;5003623;28;20486;-51
2022/01/25 09:49:00;;;;;;;33.73;24.60;;;4.00;99.90;;;;;;5006831;28;20487;-52
2022/01/25 09:51:28;;;;;;;37.33;24.40;;;4.00;99.90;;;;;;5009654;28;21019;-52
2022/01/25 09:53:54;;;;;;;37.43;24.50;;;4.10;99.90;;;;;;5007862;28;20495;-51
2022/01/25 09:56:21;;;;;;;36.03;23.60;;;4.00;99.90;;;;;;5009000;28;20543;-50
2022/01/25 09:58:49;;;;;;;33.20;23.50;;;4.00;99.90;;;;;;5007007;28;20515;-51
2022/01/25 10:01:16;;;;;;;36.00;24.07;;;4.00;99.90;;;;;;5004747;28;20463;-52
2022/01/25 10:03:45;;;;;;;30.03;22.00;;;4.10;99.90;;;;;;5004390;28;20464;-52
2022/01/25 10:06:16;;;;;;;32.97;22.63;;;4.00;99.90;;;;;;5003835;28;20870;-50
2022/01/25 10:08:44;;;;;;;29.53;21.13;;;4.10;99.90;;;;;;5008796;28;20469;-49
2022/01/25 10:11:13;;;;;;;36.43;22.83;;;4.10;99.90;;;;;;5009046;28;20467;-49
2022/01/25 10:13:41;;;;;;;35.17;22.80;;;4.10;99.90;;;;;;5012130;28;20544;-51
2022/01/25 10:16:10;;;;;;;35.30;22.20;;;4.20;99.90;;;;;;5011432;28;20491;-51
2022/01/25 10:18:43;;;;;;;30.90;21.60;;;4.20;99.90;;;;;;5006580;28;20583;-51
2022/01/25 10:21:17;;;;;;;34.73;22.20;;;4.30;99.90;;;;;;5012714;28;20498;-52
2022/01/25 10:24:08;;;;;;;32.03;21.50;;;4.30;99.90;;;;;;5014795;28;20473;-51
2022/01/25 10:26:39;;;;;;;32.20;21.77;;;4.20;99.90;;;;;;5016575;28;20511;-51
2022/01/25 10:29:06;;;;;;;32.60;20.60;;;4.20;99.90;;;;;;5011020;28;20460;-51
2022/01/25 10:31:35;;;;;;;29.63;19.90;;;4.30;99.90;;;;;;5004075;28;20551;-51
2022/01/25 10:34:02;;;;;;;29.07;20.30;;;4.30;99.90;;;;;;5006229;28;20467;-51
2022/01/25 10:36:30;;;;;;;26.87;19.63;;;4.30;99.90;;;;;;5007675;28;20483;-51
2022/01/25 10:38:58;;;;;;;27.90;18.90;;;4.30;99.90;;;;;;5012746;28;20995;-51
2022/01/25 10:41:26;;;;;;;25.60;19.50;;;4.30;99.90;;;;;;5012016;28;20833;-51
2022/01/25 10:43:56;;;;;;;25.07;18.30;;;4.30;99.90;;;;;;5003476;28;20534;-51
2022/01/25 10:46:26;;;;;;;22.00;17.57;;;4.30;99.90;;;;;;5007594;28;20973;-52
2022/01/25 10:48:56;;;;;;;27.10;19.20;;;4.30;99.90;;;;;;5002332;28;20460;-51
2022/01/25 10:51:26;;;;;;;26.83;18.40;;;4.40;99.90;;;;;;5005866;28;20525;-52
2022/01/25 10:54:00;;;;;;;31.40;19.00;;;4.40;99.90;;;;;;5003051;28;20472;-51
2022/01/25 10:56:33;;;;;;;28.73;19.73;;;4.40;99.90;;;;;;5004483;28;20511;-51
2022/01/25 10:59:02;;;;;;;27.50;19.33;;;4.40;99.90;;;;;;5008601;28;20577;-51
2022/01/25 11:01:34;;;;;;;26.27;19.27;;;4.40;99.90;;;;;;5008903;28;20502;-52
2022/01/25 11:04:10;;;;;;;27.30;18.63;;;4.40;99.90;;;;;;5011293;28;20961;-52
2022/01/25 11:06:37;;;;;;;24.17;17.73;;;4.40;99.90;;;;;;5005458;28;20479;-51
2022/01/25 11:09:07;;;;;;;27.77;19.03;;;4.40;99.90;;;;;;5008323;28;20506;-51
2022/01/25 11:11:38;;;;;;;24.70;17.27;;;4.40;99.90;;;;;;4997278;28;20466;-51
2022/01/25 11:16:49;;;;;;;23.43;16.30;;;4.50;99.90;;;;;;5003488;28;20453;-51
2022/01/25 11:19:16;;;;;;;22.00;16.87;;;4.50;99.90;;;;;;5004151;28;20483;-52
2022/01/25 11:21:43;;;;;;;25.20;16.57;;;4.40;99.90;;;;;;5005978;28;20559;-51
2022/01/25 11:24:13;;;;;;;25.00;17.90;;;4.50;99.90;;;;;;5001756;28;20559;-51
2022/01/25 11:26:41;;;;;;;29.03;18.20;;;4.50;99.90;;;;;;4998977;28;20518;-52
2022/01/25 11:29:08;;;;;;;25.53;16.70;;;4.60;99.90;;;;;;5002628;28;20547;-52
2022/01/25 11:31:36;;;;;;;27.27;17.30;;;4.60;99.90;;;;;;5001420;28;20574;-52
2022/01/25 11:34:08;;;;;;;28.00;19.40;;;4.60;99.90;;;;;;5003847;28;20547;-52
2022/01/25 11:36:43;;;;;;;25.63;18.17;;;4.60;99.90;;;;;;5004341;28;21234;-52
2022/01/25 11:39:12;;;;;;;24.90;17.97;;;4.60;99.90;;;;;;5000972;28;20562;-51
2022/01/25 11:41:43;;;;;;;25.87;17.33;;;4.70;99.90;;;;;;5000144;28;20467;-51
2022/01/25 11:44:12;;;;;;;26.27;17.40;;;4.60;99.90;;;;;;5007609;28;20455;-51
2022/01/25 11:46:41;;;;;;;27.27;17.87;;;4.50;99.90;;;;;;5000805;28;20566;-50
2022/01/25 11:49:14;;;;;;;24.77;18.37;;;4.50;99.90;;;;;;5010059;28;20898;-50
2022/01/25 11:51:41;;;;;;;21.13;16.20;;;4.60;99.90;;;;;;5010933;28;20511;-49
2022/01/25 11:54:09;;;;;;;23.23;17.10;;;4.50;99.90;;;;;;5004991;28;20492;-50
2022/01/25 11:56:38;;;;;;;23.30;17.50;;;4.50;99.90;;;;;;5003157;28;20766;-49
2022/01/25 11:59:05;;;;;;;27.57;18.40;;;4.50;99.90;;;;;;5005896;28;20479;-50
2022/01/25 12:01:35;;;;;;;36.73;17.00;;;4.60;99.90;;;;;;5006066;28;20466;-50
2022/01/25 12:04:04;;;;;;;24.30;17.57;;;4.50;99.90;;;;;;5008399;28;20525;-51
2022/01/25 12:06:34;;;;;;;23.00;16.90;;;4.60;99.90;;;;;;5003684;28;20508;-50
2022/01/25 12:09:14;;;;;;;23.17;17.13;;;4.70;99.90;;;;;;5011143;28;20455;-50
2022/01/25 12:11:46;;;;;;;25.30;17.50;;;4.70;99.90;;;;;;5004187;28;20470;-51
2022/01/25 12:14:16;;;;;;;30.20;19.67;;;4.60;99.90;;;;;;5005577;28;20460;-50
2022/01/25 12:16:44;;;;;;;35.50;20.90;;;4.70;99.90;;;;;;5003803;28;20557;-50
2022/01/25 12:19:14;;;;;;;27.87;19.93;;;4.70;99.90;;;;;;5004004;28;21033;-50
2022/01/25 12:21:58;;;;;;;25.40;17.70;;;4.60;99.90;;;;;;5008790;28;20467;-51
2022/01/25 12:24:31;;;;;;;27.50;18.37;;;4.70;99.90;;;;;;5004852;28;20563;-52
2022/01/25 12:27:03;;;;;;;28.80;19.77;;;4.70;99.90;;;;;;5037278;23;22824;-49
2022/01/25 12:29:36;;;;;;;26.70;18.97;;;4.70;99.90;;;;;;5044849;28;20466;-49
2022/01/25 12:32:22;;;;;;;26.50;18.47;;;4.70;99.90;;;;;;5044566;28;20458;-50
2022/01/25 12:35:07;;;;;;;27.07;18.90;;;4.70;99.90;;;;;;5040584;28;20991;-50
2022/01/25 12:38:10;;;;;;;24.93;18.73;;;4.70;99.90;;;;;;5039163;28;20516;-49
2022/01/25 12:40:47;;;;;;;27.73;19.47;;;4.70;99.90;;;;;;5045490;28;20805;-50
2022/01/25 12:43:19;;;;;;;30.00;20.37;;;4.80;99.90;;;;;;5041207;28;20987;-50
2022/01/25 12:45:49;;;;;;;34.13;21.87;;;4.80;99.90;;;;;;5051141;28;20513;-49
2022/01/25 12:48:18;;;;;;;33.17;20.60;;;4.80;99.90;;;;;;5042803;28;20970;-51
2022/01/25 12:50:46;;;;;;;38.73;23.23;;;4.70;99.90;;;;;;5043053;28;20500;-50
2022/01/25 12:53:16;;;;;;;27.83;19.03;;;4.80;99.90;;;;;;5040752;28;20524;-50
2022/01/25 12:55:45;;;;;;;27.40;19.13;;;4.80;99.90;;;;;;5041426;28;20562;-49
2022/01/25 12:58:12;;;;;;;30.27;19.57;;;4.70;99.90;;;;;;5044045;28;20458;-50
2022/01/25 13:00:43;;;;;;;32.60;20.00;;;4.70;99.90;;;;;;5045769;28;20962;-50
2022/01/25 13:03:15;;;;;;;29.07;20.40;;;4.70;98.10;;;;;;5043713;28;20457;-50
2022/01/25 13:05:44;;;;;;;31.67;19.63;;;4.70;99.90;;;;;;5044747;28;20489;-49
2022/01/25 13:08:26;;;;;;;25.47;18.53;;;4.70;99.90;;;;;;5043760;28;20494;-49
2022/01/25 13:10:57;;;;;;;29.13;20.00;;;4.80;99.90;;;;;;5042630;28;20466;-50
2022/01/25 13:13:29;;;;;;;30.57;19.83;;;4.70;99.90;;;;;;5045221;28;20458;-50
2022/01/25 13:15:59;;;;;;;27.83;18.77;;;4.70;99.90;;;;;;5042560;28;20474;-50
2022/01/25 13:18:30;;;;;;;28.90;19.20;;;4.70;99.90;;;;;;5043312;28;20511;-50
2022/01/25 13:21:07;;;;;;;25.03;17.90;;;4.70;99.90;;;;;;5041356;28;20469;-51
2022/01/25 13:23:35;;;;;;;29.73;20.03;;;4.70;99.90;;;;;;5043800;28;20457;-51
2022/01/25 13:26:11;;;;;;;28.93;18.57;;;4.70;99.90;;;;;;5042944;28;20494;-49
2022/01/25 13:28:53;;;;;;;28.27;18.80;;;4.70;99.90;;;;;;5041973;28;20457;-50
2022/01/25 13:31:23;;;;;;;24.90;18.43;;;4.70;99.90;;;;;;5041491;28;20821;-49
2022/01/25 13:33:53;;;;;;;27.17;18.37;;;4.70;99.90;;;;;;5040419;28;20464;-49
2022/01/25 13:36:21;;;;;;;27.40;19.93;;;4.70;99.90;;;;;;5044287;28;20539;-50
2022/01/25 13:38:49;;;;;;;28.60;17.70;;;4.70;99.90;;;;;;5042548;28;22086;-50
2022/01/25 13:41:23;;;;;;;30.27;18.67;;;4.70;99.90;;;;;;5045140;28;20462;-50
2022/01/25 13:46:39;;;;;;;26.80;17.43;;;4.80;99.90;;;;;;5042508;28;20529;-51
2022/01/25 13:49:11;;;;;;;24.07;17.00;;;4.80;99.90;;;;;;5043733;28;20454;-50
2022/01/25 13:51:44;;;;;;;27.30;18.43;;;4.80;99.90;;;;;;5042834;28;20458;-50
2022/01/25 13:54:14;;;;;;;26.80;18.43;;;4.80;99.90;;;;;;5042362;28;20465;-49
2022/01/25 13:56:41;;;;;;;26.70;18.13;;;4.80;99.90;;;;;;5041720;28;21977;-50
2022/01/25 13:59:09;;;;;;;29.13;18.10;;;4.80;99.90;;;;;;5041663;28;21006;-49
2022/01/25 14:01:40;;;;;;;25.93;17.17;;;4.70;99.90;;;;;;5038038;28;20492;-50
2022/01/25 14:04:09;;;;;;;26.37;18.00;;;4.80;99.90;;;;;;5040305;28;20494;-51